Time;durP1;ratioP1;P1;durP2;ratioP2;P2;SDS_P1;SDS_P2;PMS_P1;PMS_P2;Temp;Humidity;BMP_temperature;BMP_pressure;BME280_temperature;BME280_humidity;BME280_pressure;Samples;Min_cycle;Max_cycle;Signal;HPM_P1;HPM_P2
2022/11/28 00:00:51;;;;;;;;;12.25;9.00;;;;;11.27;71.84;101029.94;2375215;28;45330;-80
2022/11/28 00:02:02;;;;;;;;;13.25;11.75;;;;;11.29;71.51;101027.25;2368222;28;47382;-79
2022/11/28 00:03:12;;;;;;;;;10.00;8.00;;;;;11.29;71.67;101016.75;2375321;28;45458;-79
2022/11/28 00:04:23;;;;;;;;;9.50;9.00;;;;;11.31;71.26;101017.56;2366689;28;47929;-79
2022/11/28 00:05:35;;;;;;;;;10.25;10.25;;;;;11.32;71.58;101011.38;2367633;28;45443;-79
2022/11/28 00:06:48;;;;;;;;;10.00;8.00;;;;;11.32;71.61;101008.75;2377967;28;45579;-79
2022/11/28 00:07:59;;;;;;;;;6.25;5.75;;;;;11.32;71.56;101011.38;2374171;28;44722;-79
2022/11/28 00:09:10;;;;;;;;;13.00;11.50;;;;;11.32;71.40;101009.63;2375879;28;45413;-79
2022/11/28 00:10:21;;;;;;;;;11.25;11.00;;;;;11.32;71.45;101007.00;2384882;28;45208;-79
2022/11/28 00:11:31;;;;;;;;;10.00;9.75;;;;;11.32;71.31;101004.34;2383098;28;47856;-79
2022/11/28 00:12:41;;;;;;;;;10.75;9.75;;;;;11.32;71.37;100993.81;2382493;28;45437;-79
2022/11/28 00:13:53;;;;;;;;;9.75;8.50;;;;;11.34;71.48;100991.13;2384877;28;45350;-79
2022/11/28 00:15:04;;;;;;;;;11.00;10.00;;;;;11.33;71.56;100992.06;2384897;28;44676;-79
2022/11/28 00:16:20;;;;;;;;;10.75;8.00;;;;;11.33;71.21;100986.81;2374375;28;47617;-79
2022/11/28 00:17:30;;;;;;;;;11.00;7.00;;;;;11.31;71.42;100978.09;2372145;28;45360;-79
2022/11/28 00:18:41;;;;;;;;;8.25;8.25;;;;;11.31;71.63;100986.00;2374849;28;46724;-79
2022/11/28 00:19:51;;;;;;;;;9.50;7.50;;;;;11.30;71.42;100987.75;2375609;28;45296;-80
2022/11/28 00:21:05;;;;;;;;;10.50;8.00;;;;;11.31;71.31;100989.47;2375527;28;46164;-79
2022/11/28 00:22:15;;;;;;;;;10.50;9.00;;;;;11.30;71.59;100993.03;2375715;28;45156;-79
2022/11/28 00:23:25;;;;;;;;;9.00;8.50;;;;;11.29;71.48;100986.03;2375436;28;45243;-79
2022/11/28 00:24:36;;;;;;;;;11.50;9.50;;;;;11.31;71.66;100980.72;2373795;28;45510;-79
2022/11/28 00:25:55;;;;;;;;;9.00;9.00;;;;;11.32;71.77;100991.19;2375139;28;45359;-79
2022/11/28 00:27:05;;;;;;;;;11.00;7.75;;;;;11.32;71.33;100995.59;2375610;28;45223;-79
2022/11/28 00:28:16;;;;;;;;;14.75;13.75;;;;;11.30;71.71;100992.16;2372606;28;46310;-79
2022/11/28 00:29:26;;;;;;;;;13.00;12.25;;;;;11.31;71.40;100993.88;2368646;28;44786;-79
2022/11/28 00:30:37;;;;;;;;;11.75;10.00;;;;;11.31;71.68;100994.72;2374425;28;48177;-79
2022/11/28 00:31:47;;;;;;;;;9.50;8.50;;;;;11.32;71.66;100993.81;2372388;28;45481;-79
2022/11/28 00:32:58;;;;;;;;;9.00;9.00;;;;;11.32;71.83;100991.19;2374798;28;47174;-80
2022/11/28 00:34:10;;;;;;;;;9.50;8.50;;;;;11.35;71.78;100990.25;2380983;28;45362;-79
2022/11/28 00:35:20;;;;;;;;;8.00;8.00;;;;;11.35;71.77;100990.25;2374487;28;47410;-79
2022/11/28 00:36:31;;;;;;;;;10.00;8.75;;;;;11.35;71.88;100984.97;2374787;28;45250;-79
2022/11/28 00:37:41;;;;;;;;;10.25;9.75;;;;;11.35;71.69;100987.59;2377414;28;47139;-79
2022/11/28 00:38:52;;;;;;;;;9.75;8.75;;;;;11.33;71.59;100994.69;2367643;28;45353;-79
2022/11/28 00:40:02;;;;;;;;;9.75;9.75;;;;;11.33;71.88;100981.53;2372619;28;45471;-79
2022/11/28 00:41:15;;;;;;;;;9.00;9.00;;;;;11.33;71.54;100997.31;2383811;28;44691;-79
2022/11/28 00:42:26;;;;;;;;;10.50;10.50;;;;;11.33;71.52;100992.06;2381049;28;46528;-79
2022/11/28 00:43:36;;;;;;;;;8.50;8.50;;;;;11.34;71.91;100984.09;2374713;28;45224;-79
2022/11/28 00:44:48;;;;;;;;;9.50;7.75;;;;;11.34;71.69;100978.84;2374592;28;45282;-79
2022/11/28 00:45:58;;;;;;;;;9.00;5.00;;;;;11.35;71.85;100988.47;2375625;28;45236;-79
2022/11/28 00:47:09;;;;;;;;;10.25;10.00;;;;;11.36;71.91;100989.31;2383912;28;47463;-79
2022/11/28 00:48:19;;;;;;;;;10.50;10.00;;;;;11.36;71.80;100978.78;2380886;28;45456;-80
2022/11/28 00:49:30;;;;;;;;;7.75;7.75;;;;;11.36;71.58;100984.91;2374751;28;47919;-79
2022/11/28 00:50:40;;;;;;;;;8.25;8.25;;;;;11.36;71.74;100986.69;2369122;28;45534;-79
2022/11/28 00:51:50;;;;;;;;;10.00;10.00;;;;;11.36;71.84;100979.66;2367399;28;48211;-79
2022/11/28 00:53:01;;;;;;;;;11.00;10.50;;;;;11.37;71.55;100980.53;2368173;28;44618;-79
2022/11/28 00:54:11;;;;;;;;;11.25;10.00;;;;;11.37;71.74;100970.00;2367800;28;46908;-80
2022/11/28 00:55:21;;;;;;;;;12.00;8.25;;;;;11.38;71.79;100974.38;2374546;28;45333;-79
2022/11/28 00:56:36;;;;;;;;;10.75;10.50;;;;;11.38;71.88;100979.63;2367647;28;46145;-79
2022/11/28 00:57:47;;;;;;;;;12.50;10.25;;;;;11.39;71.67;100981.31;2368921;28;45281;-79
2022/11/28 00:58:57;;;;;;;;;8.75;8.75;;;;;11.39;71.81;100973.44;2373543;28;48344;-79
2022/11/28 01:00:08;;;;;;;;;6.75;6.00;;;;;11.39;71.91;100976.06;2369467;28;44579;-79
2022/11/28 01:01:25;;;;;;;;;9.00;8.00;;;;;11.40;71.88;100975.16;2375032;28;46675;-79
2022/11/28 01:02:35;;;;;;;;;8.75;8.75;;;;;11.40;71.93;100976.94;2375498;28;45212;-79
2022/11/28 01:03:48;;;;;;;;;12.00;9.50;;;;;11.39;71.77;100978.69;2375215;28;45302;-79
2022/11/28 01:04:59;;;;;;;;;9.50;9.50;;;;;11.39;71.91;100973.44;2374490;28;45279;-79
2022/11/28 01:06:10;;;;;;;;;7.25;7.25;;;;;11.39;71.63;100980.47;2376655;28;47514;-79
2022/11/28 01:07:21;;;;;;;;;10.25;8.75;;;;;11.40;71.69;100971.66;2367753;28;44690;-79
2022/11/28 01:08:31;;;;;;;;;10.00;9.00;;;;;11.40;71.57;100977.78;2370078;28;46315;-79
2022/11/28 01:09:41;;;;;;;;;10.00;10.00;;;;;11.40;71.73;100974.28;2374620;28;44752;-79
2022/11/28 01:10:52;;;;;;;;;9.75;8.75;;;;;11.40;71.76;100979.56;2366152;28;46462;-79
2022/11/28 01:12:02;;;;;;;;;8.00;8.00;;;;;11.39;71.76;100976.06;2370605;28;45390;-79
2022/11/28 01:13:12;;;;;;;;;9.25;7.00;;;;;11.40;71.30;100976.94;2374582;28;46293;-79
2022/11/28 01:14:24;;;;;;;;;10.00;9.50;;;;;11.39;71.58;100980.47;2375410;28;44672;-79
2022/11/28 01:15:35;;;;;;;;;10.00;8.75;;;;;11.39;72.07;100977.81;2383570;28;46112;-79
2022/11/28 01:16:45;;;;;;;;;9.25;8.50;;;;;11.38;71.93;100970.88;2373702;28;45303;-79
2022/11/28 01:17:56;;;;;;;;;9.00;9.00;;;;;11.36;71.75;100979.66;2374714;28;46395;-79
2022/11/28 01:19:07;;;;;;;;;9.00;8.75;;;;;11.37;71.78;100977.88;2375159;28;45381;-79
2022/11/28 01:20:17;;;;;;;;;8.25;8.25;;;;;11.38;71.94;100979.63;2374360;28;47277;-79
2022/11/28 01:21:28;;;;;;;;;8.50;7.50;;;;;11.37;71.74;100977.88;2377051;28;45187;-79
2022/11/28 01:22:38;;;;;;;;;10.25;9.25;;;;;11.38;71.86;100976.13;2378706;28;45553;-79
2022/11/28 01:23:48;;;;;;;;;10.75;9.50;;;;;11.39;71.81;100976.06;2373094;28;45291;-79
2022/11/28 01:24:59;;;;;;;;;10.75;10.75;;;;;11.40;71.78;100974.28;2381708;28;47175;-79
2022/11/28 01:26:14;;;;;;;;;10.75;10.00;;;;;11.40;72.00;100974.28;2383593;28;45249;-79
2022/11/28 01:27:25;;;;;;;;;10.75;10.00;;;;;11.40;72.13;100984.81;2377412;28;46392;-79
2022/11/28 01:28:36;;;;;;;;;11.50;10.00;;;;;11.41;71.55;100979.50;2369708;28;44634;-79
2022/11/28 01:29:47;;;;;;;;;12.75;12.00;;;;;11.40;71.86;100972.53;2374236;28;46633;-79
2022/11/28 01:31:06;;;;;;;;;10.25;10.00;;;;;11.40;71.89;100977.78;2374304;28;44690;-79
2022/11/28 01:32:17;;;;;;;;;12.25;10.00;;;;;11.41;71.92;100982.13;2368744;28;48238;-79
2022/11/28 01:33:27;;;;;;;;;10.75;10.50;;;;;11.41;71.88;100987.41;2374345;28;45285;-79
2022/11/28 01:34:37;;;;;;;;;12.50;11.00;;;;;11.42;71.95;100980.38;2374463;28;45295;-79
2022/11/28 01:35:56;;;;;;;;;12.50;10.00;;;;;11.41;72.19;100984.75;2374500;28;45162;-79
2022/11/28 01:37:06;;;;;;;;;12.00;9.00;;;;;11.40;71.95;100983.06;2374427;28;45375;-79
2022/11/28 01:38:16;;;;;;;;;10.00;9.25;;;;;11.40;71.82;100985.69;2372410;28;45159;-79
2022/11/28 01:39:27;;;;;;;;;12.25;10.25;;;;;11.42;71.86;100989.13;2365841;29;45339;-79
2022/11/28 01:40:44;;;;;;;;;13.00;11.25;;;;;11.39;72.09;100981.31;2371655;28;45345;-79
2022/11/28 01:41:55;;;;;;;;;11.75;11.75;;;;;11.40;72.03;100988.31;2368165;28;47512;-79
2022/11/28 01:43:09;;;;;;;;;13.75;12.00;;;;;11.42;72.04;100990.91;2373489;28;45335;-79
2022/11/28 01:44:19;;;;;;;;;10.75;9.00;;;;;11.42;71.99;100986.50;2362883;28;47088;-79
2022/11/28 01:45:32;;;;;;;;;12.00;11.00;;;;;11.42;72.37;100989.13;2374201;28;45191;-79
2022/11/28 01:46:42;;;;;;;;;12.00;11.50;;;;;11.44;72.20;100995.19;2374839;28;45654;-79
2022/11/28 01:47:56;;;;;;;;;10.00;10.00;;;;;11.43;72.01;100993.47;2374238;28;44938;-79
2022/11/28 01:49:13;;;;;;;;;13.25;11.50;;;;;11.44;72.22;101000.47;2374102;28;47063;-79
2022/11/28 01:50:24;;;;;;;;;12.50;11.00;;;;;11.44;72.20;100987.31;2374583;28;45510;-79
2022/11/28 01:51:35;;;;;;;;;13.00;10.25;;;;;11.44;72.10;100991.69;2383278;28;48350;-79
2022/11/28 01:52:52;;;;;;;;;14.50;11.50;;;;;11.46;72.07;101003.91;2380908;28;44708;-79
2022/11/28 01:54:03;;;;;;;;;12.00;10.25;;;;;11.46;72.05;101009.16;2374163;28;45681;-79
2022/11/28 01:55:19;;;;;;;;;8.25;8.00;;;;;11.47;72.05;101004.78;2374262;28;45348;-79
2022/11/28 01:56:38;;;;;;;;;10.75;10.75;;;;;11.47;71.97;101004.78;2373696;28;46213;-79
2022/11/28 01:57:51;;;;;;;;;12.00;11.75;;;;;11.47;72.31;101005.63;2374283;28;45310;-79
2022/11/28 01:59:05;;;;;;;;;13.00;12.00;;;;;11.45;72.44;101007.47;2374310;28;45441;-79
2022/11/28 02:00:19;;;;;;;;;11.00;11.00;;;;;11.47;71.89;101012.66;2374184;28;45336;-79
2022/11/28 02:01:29;;;;;;;;;13.00;12.00;;;;;11.46;72.11;101017.06;2374250;28;46775;-79
2022/11/28 02:02:46;;;;;;;;;14.00;13.00;;;;;11.47;72.13;101018.81;2375102;28;44633;-79
2022/11/28 02:03:57;;;;;;;;;10.75;9.00;;;;;11.46;72.38;101009.16;2374101;28;45598;-79
2022/11/28 02:05:08;;;;;;;;;11.00;10.00;;;;;11.48;72.31;101017.88;2375027;28;45267;-79
2022/11/28 02:06:23;;;;;;;;;13.25;11.00;;;;;11.49;72.43;101005.56;2374825;28;46253;-79
2022/11/28 02:07:34;;;;;;;;;14.50;10.75;;;;;11.49;72.29;101016.09;2373262;28;45392;-79
2022/11/28 02:08:44;;;;;;;;;15.00;13.00;;;;;11.50;72.41;101006.44;2359679;29;47945;-79
2022/11/28 02:09:55;;;;;;;;;13.00;11.25;;;;;11.50;72.29;101011.72;2365677;28;44726;-79
2022/11/28 02:11:27;;;;;;;;;13.25;11.00;;;;;11.52;72.38;101009.88;2376424;28;46360;-79
2022/11/28 02:12:56;;;;;;;;;12.25;7.50;;;;;11.52;72.42;101010.75;2372247;28;44645;-79
2022/11/28 02:14:16;;;;;;;;;12.50;12.00;;;;;11.51;72.63;101009.00;2370222;28;48335;-79
2022/11/28 02:15:55;;;;;;;;;12.50;11.25;;;;;11.53;72.48;101006.34;2373257;28;45308;-79
2022/11/28 02:17:25;;;;;;;;;14.00;10.75;;;;;11.52;72.50;101005.47;2362563;28;47814;-79
2022/11/28 02:18:38;;;;;;;;;13.50;11.00;;;;;11.53;72.50;101014.25;2369633;28;45262;-79
2022/11/28 02:20:23;;;;;;;;;11.25;10.50;;;;;11.53;72.61;100998.44;2364930;28;45309;-79
2022/11/28 02:21:43;;;;;;;;;10.75;10.75;;;;;11.53;72.51;101004.56;2373670;28;45442;-79
2022/11/28 02:23:09;;;;;;;;;13.00;11.75;;;;;11.55;72.51;101007.16;2373607;28;45449;-79
2022/11/28 02:24:44;;;;;;;;;9.25;8.75;;;;;11.55;72.44;101001.91;2376048;28;45220;-79
2022/11/28 02:26:19;;;;;;;;;12.50;10.25;;;;;11.55;72.37;100999.25;2364690;29;47281;-79
2022/11/28 02:28:07;;;;;;;;;15.25;11.25;;;;;11.56;72.51;100995.69;2371207;28;45161;-79
2022/11/28 02:29:33;;;;;;;;;12.50;11.00;;;;;11.56;72.48;100998.34;2372040;28;48304;-79
2022/11/28 02:31:02;;;;;;;;;6.50;5.75;;;;;11.55;72.31;100996.63;2373174;28;45332;-79
2022/11/28 02:32:33;;;;;;;;;13.00;10.75;;;;;11.54;72.42;100995.75;2365694;28;46274;-79
2022/11/28 02:33:51;;;;;;;;;15.75;11.75;;;;;11.55;72.62;100999.25;2382434;28;45545;-79
2022/11/28 02:35:20;;;;;;;;;12.00;12.00;;;;;11.56;72.59;100993.06;2378060;28;45432;-79
2022/11/28 02:36:37;;;;;;;;;11.00;11.00;;;;;11.56;72.59;100993.94;2374820;28;44688;-79
2022/11/28 02:37:47;;;;;;;;;16.00;12.25;;;;;11.56;72.44;101000.97;2373831;28;47264;-79
2022/11/28 02:39:15;;;;;;;;;12.25;11.25;;;;;11.57;72.33;101000.94;2374111;28;45289;-79
2022/11/28 02:40:34;;;;;;;;;12.25;12.00;;;;;11.58;72.34;101001.81;2374453;28;45471;-79
2022/11/28 02:42:11;;;;;;;;;13.75;11.00;;;;;11.59;72.61;100996.47;2383102;28;45339;-79
2022/11/28 02:43:43;;;;;;;;;14.25;13.00;;;;;11.58;72.39;100993.91;2373375;28;46407;-79
2022/11/28 02:45:09;;;;;;;;;13.00;9.50;;;;;11.59;72.56;100992.97;2368610;28;45345;-79
2022/11/28 02:46:31;;;;;;;;;15.25;12.00;;;;;11.58;72.36;100986.84;2371841;28;47025;-79
2022/11/28 02:47:47;;;;;;;;;13.00;13.00;;;;;11.60;72.44;100984.19;2373963;28;45325;-79
2022/11/28 02:49:03;;;;;;;;;11.75;11.75;;;;;11.60;72.29;100984.19;2374300;28;46318;-79
2022/11/28 02:50:13;;;;;;;;;14.50;10.50;;;;;11.61;72.40;100983.25;2383193;28;45286;-79
2022/11/28 02:51:39;;;;;;;;;12.00;10.00;;;;;11.59;72.43;100975.41;2380594;28;46513;-79
2022/11/28 02:52:58;;;;;;;;;11.00;11.00;;;;;11.61;72.42;100972.72;2374714;28;45417;-79
2022/11/28 02:54:12;;;;;;;;;13.25;9.75;;;;;11.60;72.49;100965.75;2371170;28;47540;-79
2022/11/28 02:55:23;;;;;;;;;11.50;11.25;;;;;11.60;72.28;100963.13;2363296;29;45181;-79
2022/11/28 02:56:34;;;;;;;;;14.75;12.75;;;;;11.62;72.39;100963.06;2367525;28;47968;-79
2022/11/28 02:57:50;;;;;;;;;12.50;12.25;;;;;11.60;72.54;100960.47;2383177;28;45315;-79
2022/11/28 02:59:00;;;;;;;;;15.25;12.25;;;;;11.61;72.53;100958.69;2372913;28;48351;-79
2022/11/28 03:00:42;;;;;;;;;14.50;13.25;;;;;11.60;72.36;100957.84;2374134;28;45491;-79
2022/11/28 03:01:52;;;;;;;;;12.50;11.75;;;;;11.60;72.32;100960.47;2367536;28;47236;-79
2022/11/28 03:03:29;;;;;;;;;14.00;12.75;;;;;11.63;72.46;100962.16;2371707;28;45317;-79
2022/11/28 03:05:01;;;;;;;;;13.50;11.00;;;;;11.63;72.63;100957.72;2370441;28;47143;-79
2022/11/28 03:06:28;;;;;;;;;12.50;12.00;;;;;11.61;72.38;100956.06;2373743;28;45474;-79
2022/11/28 03:08:00;;;;;;;;;12.25;11.50;;;;;11.62;72.51;100956.03;2375337;28;46164;-79
2022/11/28 03:09:50;;;;;;;;;13.50;11.75;;;;;11.62;72.52;100957.78;2375434;28;45363;-79
2022/11/28 03:11:32;;;;;;;;;10.75;10.00;;;;;11.61;72.56;100956.06;2375783;28;45402;-79
2022/11/28 03:13:14;;;;;;;;;14.75;13.00;;;;;11.61;72.44;100966.59;2376115;28;44608;-79
2022/11/28 03:14:35;;;;;;;;;12.75;10.25;;;;;11.60;72.65;100965.75;2360902;29;45560;-79
2022/11/28 03:16:07;;;;;;;;;14.50;14.00;;;;;11.60;72.41;100965.75;2371084;28;45317;-79
2022/11/28 03:17:39;;;;;;;;;13.50;10.25;;;;;11.60;72.41;100955.22;2374934;28;47228;-79
2022/11/28 03:19:24;;;;;;;;;10.75;10.75;;;;;11.60;72.60;100949.94;2371511;28;45292;-79
2022/11/28 03:20:55;;;;;;;;;14.75;13.25;;;;;11.60;72.36;100949.94;2368945;28;46385;-79
2022/11/28 03:22:23;;;;;;;;;12.25;11.75;;;;;11.60;72.50;100949.94;2375570;28;45240;-79
2022/11/28 03:23:43;;;;;;;;;11.75;11.75;;;;;11.61;72.34;100953.41;2379442;28;46838;-79
2022/11/28 03:25:08;;;;;;;;;16.75;13.50;;;;;11.59;72.47;100945.59;2375371;28;45389;-79
2022/11/28 03:26:32;;;;;;;;;13.50;11.50;;;;;11.60;72.60;100947.31;2375074;28;46759;-79
2022/11/28 03:27:48;;;;;;;;;15.00;10.50;;;;;11.59;72.78;100951.72;2371454;28;45248;-79
2022/11/28 03:29:20;;;;;;;;;15.25;12.50;;;;;11.60;72.44;100952.59;2366065;29;46120;-79
2022/11/28 03:30:40;;;;;;;;;14.25;14.00;;;;;11.62;72.60;100955.16;2374967;28;45491;-79
2022/11/28 03:32:01;;;;;;;;;14.25;12.00;;;;;11.62;72.06;100955.16;2371291;28;45401;-79
2022/11/28 03:33:15;;;;;;;;;14.25;13.00;;;;;11.61;72.72;100953.41;2369167;28;45571;-79
2022/11/28 03:34:33;;;;;;;;;14.00;13.50;;;;;11.62;72.39;100955.16;2375129;28;48130;-79
2022/11/28 03:35:50;;;;;;;;;16.25;11.00;;;;;11.62;72.54;100955.16;2375371;28;45235;-79
2022/11/28 03:37:07;;;;;;;;;15.25;15.25;;;;;11.61;72.73;100962.19;2375014;28;47349;-79
2022/11/28 03:38:27;;;;;;;;;17.00;13.25;;;;;11.61;72.53;100964.81;2375574;28;45299;-79
2022/11/28 03:39:41;;;;;;;;;14.25;10.25;;;;;11.62;72.51;100961.28;2374926;28;47084;-79
2022/11/28 03:40:56;;;;;;;;;13.50;12.00;;;;;11.63;72.49;100962.16;2369350;28;45388;-79
2022/11/28 03:42:21;;;;;;;;;11.75;10.50;;;;;11.62;72.84;100961.28;2368491;28;47583;-79
2022/11/28 03:43:40;;;;;;;;;12.50;11.75;;;;;11.62;72.66;100963.91;2366043;29;45425;-79
2022/11/28 03:45:00;;;;;;;;;15.00;12.50;;;;;11.64;72.55;100970.00;2368254;28;45565;-79
2022/11/28 03:46:14;;;;;;;;;13.00;13.00;;;;;11.64;72.68;100969.13;2384104;28;45396;-79
2022/11/28 03:47:32;;;;;;;;;13.50;10.75;;;;;11.64;72.79;100961.22;2375071;28;48176;-79
2022/11/28 03:48:47;;;;;;;;;15.25;13.00;;;;;11.65;72.70;100962.97;2375430;28;45394;-79
2022/11/28 03:50:05;;;;;;;;;12.75;12.00;;;;;11.63;72.66;100963.00;2375133;28;46184;-79
2022/11/28 03:51:21;;;;;;;;;11.75;10.00;;;;;11.64;72.91;100967.34;2374823;28;45277;-79
2022/11/28 03:52:39;;;;;;;;;12.25;11.00;;;;;11.63;72.95;100954.25;2375308;28;46602;-79
2022/11/28 03:54:00;;;;;;;;;12.50;12.00;;;;;11.64;72.68;100962.09;2374508;28;45316;-79
2022/11/28 03:55:18;;;;;;;;;13.75;13.50;;;;;11.63;72.61;100957.72;2369518;28;47669;-79
2022/11/28 03:56:56;;;;;;;;;13.25;11.00;;;;;11.65;72.57;100952.44;2375271;28;45251;-79
2022/11/28 03:58:23;;;;;;;;;12.50;12.25;;;;;11.64;73.15;100946.28;2375721;28;45327;-79
2022/11/28 03:59:37;;;;;;;;;11.50;10.00;;;;;11.65;72.74;100945.41;2375037;28;45395;-79
2022/11/28 04:01:05;;;;;;;;;12.25;11.00;;;;;11.65;72.65;100948.03;2369000;28;45440;-79
2022/11/28 04:02:25;;;;;;;;;10.00;10.00;;;;;11.64;72.66;100943.66;2374184;28;45339;-79
2022/11/28 04:03:49;;;;;;;;;11.25;10.00;;;;;11.65;72.66;100949.78;2371029;28;45473;-79
2022/11/28 04:05:12;;;;;;;;;11.75;10.25;;;;;11.65;72.54;100942.75;2369632;28;45429;-79
2022/11/28 04:06:33;;;;;;;;;10.75;10.75;;;;;11.66;72.50;100949.72;2376319;28;47784;-79
2022/11/28 04:07:54;;;;;;;;;10.50;9.00;;;;;11.66;72.66;100948.88;2380310;28;45359;-79
2022/11/28 04:09:15;;;;;;;;;13.00;11.50;;;;;11.66;72.88;100955.00;2369716;28;48283;-79
2022/11/28 04:10:33;;;;;;;;;9.50;8.50;;;;;11.66;72.88;100944.47;2370100;28;45245;-79
2022/11/28 04:11:50;;;;;;;;;11.25;10.75;;;;;11.68;72.68;100952.31;2371564;28;46139;-79
2022/11/28 04:13:18;;;;;;;;;14.50;12.00;;;;;11.68;72.67;100949.69;2371649;28;44713;-79
2022/11/28 04:14:40;;;;;;;;;12.00;11.00;;;;;11.68;72.76;100954.97;2375413;28;45401;-79
2022/11/28 04:15:59;;;;;;;;;9.75;9.00;;;;;11.69;72.68;100962.78;2384391;28;45240;-79
2022/11/28 04:17:21;;;;;;;;;11.00;9.75;;;;;11.66;72.64;100952.38;2380086;28;47300;-79
2022/11/28 04:18:58;;;;;;;;;10.75;9.00;;;;;11.66;72.91;100960.25;2374986;28;45513;-79
2022/11/28 04:20:25;;;;;;;;;12.00;9.25;;;;;11.66;72.90;100956.75;2374614;28;45579;-79
2022/11/28 04:21:54;;;;;;;;;10.75;10.25;;;;;11.67;72.61;100959.34;2374962;28;44634;-79
2022/11/28 04:23:12;;;;;;;;;14.75;11.25;;;;;11.66;72.71;100957.63;2370439;28;48026;-79
2022/11/28 04:24:30;;;;;;;;;10.25;10.25;;;;;11.66;72.81;100957.63;2368358;28;45276;-79
2022/11/28 04:25:46;;;;;;;;;12.50;11.50;;;;;11.67;72.55;100954.09;2375000;28;46499;-79
2022/11/28 04:27:05;;;;;;;;;12.00;10.75;;;;;11.67;72.90;100954.09;2374784;28;45076;-79
2022/11/28 04:28:21;;;;;;;;;15.25;12.75;;;;;11.66;72.98;100952.38;2374367;28;45406;-79
2022/11/28 04:29:37;;;;;;;;;13.50;13.50;;;;;11.68;72.99;100957.59;2375809;28;45340;-79
2022/11/28 04:30:50;;;;;;;;;13.75;11.75;;;;;11.67;72.73;100961.13;2375444;28;46582;-79
2022/11/28 04:32:02;;;;;;;;;14.00;12.00;;;;;11.66;72.64;100952.38;2375343;28;45312;-79
2022/11/28 04:33:18;;;;;;;;;15.75;13.50;;;;;11.67;72.71;100951.47;2375377;28;46318;-79
2022/11/28 04:34:31;;;;;;;;;12.50;11.75;;;;;11.67;72.80;100948.81;2383399;28;45238;-79
2022/11/28 04:35:48;;;;;;;;;13.25;12.75;;;;;11.68;72.39;100961.06;2374189;28;48352;-79
2022/11/28 04:37:01;;;;;;;;;12.50;12.50;;;;;11.68;72.81;100953.16;2371771;28;45504;-79
2022/11/28 04:38:13;;;;;;;;;11.75;10.75;;;;;11.68;73.00;100949.69;2367540;28;48008;-79
2022/11/28 04:39:26;;;;;;;;;11.50;11.00;;;;;11.69;72.56;100960.16;2364560;29;45204;-79
2022/11/28 04:40:46;;;;;;;;;13.00;11.00;;;;;11.69;73.06;100956.66;2359500;28;48456;-79
2022/11/28 04:42:03;;;;;;;;;15.00;13.25;;;;;11.70;72.74;100958.41;2366756;28;45287;-79
2022/11/28 04:43:24;;;;;;;;;13.00;12.00;;;;;11.70;72.94;100963.66;2383889;28;48770;-79
2022/11/28 04:44:53;;;;;;;;;13.00;12.00;;;;;11.70;72.86;100955.75;2369478;28;44722;-79
2022/11/28 04:46:11;;;;;;;;;11.25;11.25;;;;;11.70;72.78;100964.50;2374494;28;48053;-79
2022/11/28 04:47:23;;;;;;;;;17.00;11.75;;;;;11.70;72.85;100958.41;2378216;28;45384;-79
2022/11/28 04:48:34;;;;;;;;;11.50;11.50;;;;;11.70;72.83;100953.97;2380658;28;45413;-79
2022/11/28 04:49:45;;;;;;;;;12.50;12.25;;;;;11.71;72.88;100960.09;2375487;28;45396;-79
2022/11/28 04:51:08;;;;;;;;;11.25;9.75;;;;;11.73;72.88;100965.34;2374359;28;47283;-79
2022/11/28 04:52:43;;;;;;;;;11.75;11.75;;;;;11.72;72.87;100966.22;2375139;28;45228;-79
2022/11/28 04:54:18;;;;;;;;;10.00;10.00;;;;;11.70;73.00;100969.75;2374370;28;46947;-79
2022/11/28 04:55:35;;;;;;;;;12.50;11.50;;;;;11.69;73.06;100973.31;2375205;28;45251;-79
2022/11/28 04:56:54;;;;;;;;;14.00;11.50;;;;;11.69;72.95;100968.06;2375191;28;45429;-79
2022/11/28 04:58:14;;;;;;;;;11.50;10.00;;;;;11.69;73.06;100973.31;2383076;28;45252;-79
2022/11/28 04:59:27;;;;;;;;;12.00;11.50;;;;;11.70;72.94;100974.19;2365412;29;47322;-79
2022/11/28 05:00:39;;;;;;;;;14.50;11.75;;;;;11.71;72.66;100970.63;2374178;28;44764;-79
2022/11/28 05:01:49;;;;;;;;;15.00;11.00;;;;;11.71;72.93;100973.25;2375080;28;45429;-79
2022/11/28 05:03:00;;;;;;;;;17.00;15.25;;;;;11.70;72.66;100967.13;2380023;28;45261;-79
2022/11/28 05:04:13;;;;;;;;;13.00;11.50;;;;;11.72;72.93;100963.59;2369643;28;47150;-79
2022/11/28 05:05:27;;;;;;;;;16.00;12.75;;;;;11.73;72.76;100967.97;2373463;28;45483;-79
2022/11/28 05:06:37;;;;;;;;;14.25;12.00;;;;;11.72;72.95;100959.19;2374586;28;45214;-79
2022/11/28 05:07:48;;;;;;;;;16.00;12.00;;;;;11.72;72.72;100942.53;2383909;28;45299;-79
2022/11/28 05:08:58;;;;;;;;;12.75;11.25;;;;;11.74;72.94;100948.59;2366712;28;46961;-79
2022/11/28 05:10:11;;;;;;;;;15.25;13.25;;;;;11.73;72.65;100945.09;2370104;28;45245;-79
2022/11/28 05:11:21;;;;;;;;;13.00;12.75;;;;;11.73;72.92;100949.53;2383318;28;47328;-79
2022/11/28 05:12:32;;;;;;;;;14.50;12.50;;;;;11.72;72.93;100956.56;2372022;28;45372;-79
2022/11/28 05:13:43;;;;;;;;;12.00;11.00;;;;;11.72;72.77;100953.06;2365410;28;47278;-79
2022/11/28 05:14:53;;;;;;;;;17.25;13.00;;;;;11.72;72.95;100958.34;2368027;28;45492;-79
2022/11/28 05:16:04;;;;;;;;;15.00;12.75;;;;;11.74;72.96;100959.13;2374559;28;46299;-79
2022/11/28 05:17:14;;;;;;;;;12.75;12.50;;;;;11.74;72.92;100949.47;2381232;28;45328;-79
2022/11/28 05:18:25;;;;;;;;;13.50;10.75;;;;;11.74;73.34;100954.72;2371110;28;48039;-79
2022/11/28 05:19:35;;;;;;;;;15.00;12.00;;;;;11.75;72.88;100958.22;2377002;28;45307;-79
2022/11/28 05:20:45;;;;;;;;;14.75;13.00;;;;;11.75;72.87;100950.34;2378723;28;45414;-79
2022/11/28 05:21:56;;;;;;;;;12.25;11.75;;;;;11.74;72.90;100949.47;2371230;28;45269;-79
2022/11/28 05:23:06;;;;;;;;;14.00;12.00;;;;;11.75;72.82;100950.34;2383531;28;46399;-79
2022/11/28 05:24:16;;;;;;;;;15.50;13.75;;;;;11.75;72.84;100952.97;2379816;28;45283;-79
2022/11/28 05:25:27;;;;;;;;;15.25;12.00;;;;;11.75;73.06;100951.19;2374091;28;46848;-79
2022/11/28 05:26:37;;;;;;;;;13.25;12.25;;;;;11.75;72.81;100951.19;2376530;28;45314;-79
2022/11/28 05:27:48;;;;;;;;;13.25;13.00;;;;;11.77;72.84;100948.50;2374434;28;48552;-79
2022/11/28 05:28:58;;;;;;;;;15.25;13.00;;;;;11.75;73.07;100945.94;2376532;28;45282;-79
2022/11/28 05:30:09;;;;;;;;;11.75;11.25;;;;;11.77;72.93;100949.38;2371702;28;47108;-79
2022/11/28 05:31:20;;;;;;;;;15.50;13.75;;;;;11.79;73.08;100946.66;2374834;28;45526;-79
2022/11/28 05:32:31;;;;;;;;;15.50;12.00;;;;;11.77;72.96;100937.97;2371574;28;47105;-79
2022/11/28 05:33:41;;;;;;;;;11.00;8.75;;;;;11.77;72.84;100938.84;2368231;28;44844;-79
2022/11/28 05:34:51;;;;;;;;;13.25;13.00;;;;;11.77;73.09;100941.47;2375026;28;45341;-79
2022/11/28 05:36:07;;;;;;;;;12.75;12.75;;;;;11.79;73.01;100941.41;2373977;28;45469;-79
2022/11/28 05:37:17;;;;;;;;;13.00;12.00;;;;;11.77;72.77;100935.34;2371227;28;46558;-79
2022/11/28 05:38:27;;;;;;;;;15.50;12.25;;;;;11.76;73.04;100938.88;2370797;28;44788;-79
2022/11/28 05:39:38;;;;;;;;;18.00;13.50;;;;;11.74;72.63;100936.31;2367488;28;46850;-80
2022/11/28 05:40:48;;;;;;;;;15.00;13.00;;;;;11.74;73.00;100943.34;2363830;29;45469;-79
2022/11/28 05:41:58;;;;;;;;;17.75;15.50;;;;;11.74;72.83;100938.94;2366457;28;46116;-79
2022/11/28 05:43:10;;;;;;;;;12.50;12.50;;;;;11.75;72.93;100939.81;2374577;28;45259;-79
2022/11/28 05:44:20;;;;;;;;;15.75;13.00;;;;;11.77;73.06;100943.25;2374889;28;45561;-79
2022/11/28 05:46:51;;;;;;;;;14.50;12.50;;;;;11.77;72.94;100953.78;2599938;23;46018;-79
2022/11/28 05:48:02;;;;;;;;;15.75;14.50;;;;;11.78;73.05;100961.59;2381793;28;45391;-79
2022/11/28 05:49:12;;;;;;;;;15.00;13.50;;;;;11.78;72.97;100966.88;2371734;28;47178;-79
2022/11/28 05:50:22;;;;;;;;;6.25;4.25;;;;;11.78;72.78;100963.38;2376532;28;44834;-79